createdAt,value
2022-09-03T00:00:44.623Z,80.93
2022-09-03T00:03:38.159Z,77.18
2022-09-03T00:06:33.751Z,82.22
2022-09-03T00:09:28.064Z,80.25
2022-09-03T00:12:24.862Z,82.50
2022-09-03T00:15:18.463Z,83.68
2022-09-03T00:18:09.858Z,82.97
2022-09-03T00:21:08.167Z,80.32
2022-09-03T00:23:58.765Z,75.93
2022-09-03T00:26:51.790Z,75.70
2022-09-03T00:29:47.228Z,75.72
2022-09-03T00:32:42.464Z,70.43
2022-09-03T00:35:34.101Z,75.25
2022-09-03T00:38:22.250Z,79.82
2022-09-03T00:41:22.097Z,71.03
2022-09-03T00:44:34.838Z,74.43
2022-09-03T00:47:29.638Z,76.28
2022-09-03T00:50:32.378Z,74.95
2022-09-03T00:53:31.905Z,75.68
2022-09-03T00:56:28.438Z,74.25
2022-09-03T00:59:29.346Z,79.30
2022-09-03T01:02:29.944Z,77.50
2022-09-03T01:05:34.386Z,81.45
2022-09-03T01:08:39.054Z,78.97
2022-09-03T01:11:35.076Z,80.30
2022-09-03T01:14:39.112Z,76.68
2022-09-03T01:17:37.946Z,77.25
2022-09-03T01:20:39.057Z,76.35
2022-09-03T01:23:49.580Z,81.07
2022-09-03T01:26:58.366Z,76.13
2022-09-03T01:29:55.538Z,80.70
2022-09-03T01:32:52.962Z,82.10
2022-09-03T01:35:48.063Z,82.93
2022-09-03T01:38:43.207Z,85.88
2022-09-03T01:42:03.271Z,85.63
2022-09-03T01:45:12.036Z,81.68
2022-09-03T01:48:11.102Z,86.07
2022-09-03T01:51:07.433Z,86.97
2022-09-03T01:54:40.022Z,83.80
2022-09-03T01:57:42.151Z,83.30
2022-09-03T02:00:34.087Z,85.65
2022-09-03T02:03:22.512Z,84.72
2022-09-03T02:06:12.172Z,89.25
2022-09-03T02:09:00.209Z,88.10
2022-09-03T02:11:57.586Z,86.18
2022-09-03T02:14:45.814Z,87.88
2022-09-03T02:17:36.979Z,92.68
2022-09-03T02:20:29.817Z,89.13
2022-09-03T02:23:18.107Z,88.22
2022-09-03T02:26:18.018Z,89.00
2022-09-03T02:29:06.472Z,86.70
2022-09-03T02:31:54.536Z,96.13
2022-09-03T02:34:44.098Z,93.47
2022-09-03T02:37:32.144Z,88.35
2022-09-03T02:40:20.162Z,90.88
2022-09-03T02:43:15.283Z,90.07
2022-09-03T02:46:06.144Z,94.95
2022-09-03T02:48:54.979Z,94.70
2022-09-03T02:51:45.715Z,94.78
2022-09-03T02:54:36.355Z,94.72
2022-09-03T02:57:27.601Z,92.15
2022-09-03T03:00:16.573Z,92.80
2022-09-03T03:03:04.845Z,92.03
2022-09-03T03:05:55.945Z,92.93
2022-09-03T03:08:45.544Z,92.10
2022-09-03T03:11:33.897Z,96.45
2022-09-03T03:14:22.679Z,93.63
2022-09-03T03:17:10.836Z,97.30
2022-09-03T03:19:58.829Z,93.45
2022-09-03T03:22:46.834Z,95.72
2022-09-03T03:25:38.386Z,91.95
2022-09-03T03:28:27.024Z,96.45
2022-09-03T03:31:16.710Z,94.53
2022-09-03T03:34:04.767Z,94.50
2022-09-03T03:36:52.870Z,100.75
2022-09-03T03:39:40.962Z,93.78
2022-09-03T03:42:30.319Z,92.75
2022-09-03T03:45:18.454Z,93.65
2022-09-03T03:48:06.692Z,90.30
2022-09-03T03:50:55.154Z,94.55
2022-09-03T03:53:43.238Z,92.75
2022-09-03T03:56:31.277Z,91.80
2022-09-03T03:59:20.650Z,94.72
2022-09-03T04:02:08.754Z,97.40
2022-09-03T04:04:56.780Z,90.55
2022-09-03T04:07:44.975Z,96.90
2022-09-03T04:10:33.493Z,91.93
2022-09-03T04:13:21.482Z,87.75
2022-09-03T04:16:12.951Z,89.93
2022-09-03T04:19:01.567Z,95.60
2022-09-03T04:21:49.524Z,92.97
2022-09-03T04:24:37.501Z,94.93
2022-09-03T04:27:25.813Z,94.22
2022-09-03T04:30:14.301Z,94.35
2022-09-03T04:33:03.670Z,94.75
2022-09-03T04:35:51.996Z,92.88
2022-09-03T04:38:42.046Z,92.82
2022-09-03T04:41:31.975Z,95.63
2022-09-03T04:44:19.971Z,96.68
2022-09-03T04:47:08.197Z,91.53
2022-09-03T04:49:57.585Z,88.53
2022-09-03T04:52:45.573Z,94.38
2022-09-03T04:55:35.193Z,99.20
2022-09-03T04:58:23.286Z,89.45
2022-09-03T05:01:12.710Z,94.43
2022-09-03T05:04:01.548Z,95.50
2022-09-03T05:06:50.867Z,96.65
2022-09-03T05:09:38.860Z,92.32
2022-09-03T05:12:27.596Z,93.45
2022-09-03T05:15:15.674Z,97.75
2022-09-03T05:18:04.475Z,103.75
2022-09-03T05:20:59.765Z,108.65
2022-09-03T05:23:50.767Z,109.35
2022-09-03T05:26:40.331Z,115.43
2022-09-03T05:29:28.341Z,137.82
2022-09-03T05:32:17.258Z,177.13
2022-09-03T05:35:06.516Z,203.55
2022-09-03T05:37:56.054Z,242.82
2022-09-03T05:40:45.526Z,276.17
2022-09-03T05:43:34.537Z,301.35
2022-09-03T05:46:30.121Z,321.52
2022-09-03T05:49:18.770Z,349.45
2022-09-03T05:52:06.838Z,345.70
2022-09-03T05:54:54.843Z,357.60
2022-09-03T05:57:46.035Z,361.10
2022-09-03T06:00:34.103Z,378.80
2022-09-03T06:03:22.237Z,367.67
2022-09-03T06:06:13.908Z,390.13
2022-09-03T06:09:04.346Z,389.10
2022-09-03T06:11:53.820Z,385.30
2022-09-03T06:14:43.623Z,375.45
2022-09-03T06:17:31.591Z,390.30
2022-09-03T06:20:20.136Z,371.85
2022-09-03T06:23:08.129Z,377.20
2022-09-03T06:26:05.524Z,353.42
2022-09-03T06:28:55.612Z,356.92
2022-09-03T06:31:45.045Z,352.55
2022-09-03T06:34:33.092Z,357.90
2022-09-03T06:37:21.130Z,333.17
2022-09-03T06:40:14.102Z,321.90
2022-09-03T06:43:03.150Z,318.15
2022-09-03T06:45:55.850Z,300.83
2022-09-03T06:48:45.909Z,259.35
2022-09-03T06:51:34.356Z,235.40
2022-09-03T06:54:23.104Z,197.90
2022-09-03T06:57:11.070Z,193.07
2022-09-03T06:59:59.161Z,203.73
2022-09-03T07:02:48.743Z,221.15
2022-09-03T07:05:38.804Z,243.38
2022-09-03T07:08:26.882Z,259.73
2022-09-03T07:11:16.841Z,280.70
2022-09-03T07:14:05.974Z,285.77
2022-09-03T07:16:53.947Z,324.52
2022-09-03T07:19:41.956Z,327.58
2022-09-03T07:22:31.688Z,341.33
2022-09-03T07:25:19.799Z,344.73
2022-09-03T07:28:07.840Z,361.75
2022-09-03T07:31:01.859Z,369.38
2022-09-03T07:33:49.864Z,357.10
2022-09-03T07:36:40.077Z,363.52
2022-09-03T07:39:30.754Z,369.27
2022-09-03T07:42:18.853Z,370.08
2022-09-03T07:45:10.786Z,346.25
2022-09-03T07:47:59.043Z,356.45
2022-09-03T07:50:48.054Z,343.13
2022-09-03T07:53:36.953Z,350.60
2022-09-03T07:56:27.361Z,330.50
2022-09-03T07:59:15.482Z,329.75
2022-09-03T08:02:06.051Z,326.20
2022-09-03T08:04:54.042Z,313.38
2022-09-03T08:07:42.031Z,308.50
2022-09-03T08:10:31.032Z,308.10
2022-09-03T08:13:20.383Z,305.67
2022-09-03T08:16:09.423Z,304.83
2022-09-03T08:18:57.799Z,299.58
2022-09-03T08:21:45.946Z,319.90
2022-09-03T08:24:34.269Z,299.60
2022-09-03T08:27:26.105Z,301.05
2022-09-03T08:30:15.542Z,295.02
2022-09-03T08:33:04.833Z,283.15
2022-09-03T08:35:54.734Z,271.85
2022-09-03T08:38:45.423Z,298.67
2022-09-03T08:41:47.410Z,299.13
2022-09-03T08:44:47.043Z,293.98
2022-09-03T08:47:41.792Z,296.98
2022-09-03T08:50:32.786Z,301.77
2022-09-03T08:53:25.111Z,295.08
2022-09-03T08:56:20.104Z,283.40
2022-09-03T08:59:09.379Z,303.50
2022-09-03T09:02:07.032Z,305.83
2022-09-03T09:05:06.270Z,311.90
2022-09-03T09:08:06.874Z,304.15
2022-09-03T09:11:03.405Z,293.58
2022-09-03T09:14:00.104Z,296.10
2022-09-03T09:16:57.204Z,283.73
2022-09-03T09:19:55.559Z,301.58
2022-09-03T09:22:49.405Z,295.00
2022-09-03T09:25:46.059Z,297.02
2022-09-03T09:28:37.667Z,303.35
2022-09-03T09:31:26.597Z,303.35
2022-09-03T09:34:15.528Z,298.23
2022-09-03T09:37:05.549Z,303.85
2022-09-03T09:40:00.630Z,294.77
2022-09-03T09:42:48.716Z,299.27
2022-09-03T09:45:38.104Z,297.77
2022-09-03T09:48:31.255Z,307.95
2022-09-03T09:51:22.433Z,305.77
2022-09-03T09:54:18.887Z,298.02
2022-09-03T09:57:17.770Z,286.75
2022-09-03T10:00:10.441Z,330.70
2022-09-03T10:03:02.001Z,320.17
2022-09-03T10:06:02.080Z,315.52
2022-09-03T10:08:50.035Z,321.85
2022-09-03T10:11:40.417Z,318.10
2022-09-03T10:14:35.274Z,308.35
2022-09-03T10:17:37.114Z,292.75
2022-09-03T10:20:33.622Z,314.77
2022-09-03T10:23:24.746Z,314.58
2022-09-03T10:26:16.841Z,290.83
2022-09-03T10:29:08.640Z,286.90
2022-09-03T10:32:11.676Z,290.27
2022-09-03T10:35:12.628Z,264.15
2022-09-03T10:38:10.639Z,270.92
2022-09-03T10:41:09.988Z,275.70
2022-09-03T10:44:19.293Z,268.65
2022-09-03T10:47:23.570Z,226.60
2022-09-03T10:50:16.677Z,194.45
2022-09-03T10:53:11.993Z,180.02
2022-09-03T10:56:05.666Z,184.07
2022-09-03T10:59:11.717Z,188.40
2022-09-03T11:02:15.278Z,199.93
2022-09-03T11:05:10.078Z,185.07
2022-09-03T11:08:03.195Z,195.20
2022-09-03T11:10:56.086Z,167.48
2022-09-03T11:13:49.401Z,162.60
2022-09-03T11:16:43.402Z,144.77
2022-09-03T11:19:36.972Z,132.70
2022-09-03T11:22:29.714Z,121.72
2022-09-03T11:25:21.831Z,100.22
2022-09-03T11:28:23.037Z,103.03
2022-09-03T11:31:23.879Z,85.47
2022-09-03T11:34:19.625Z,82.97
2022-09-03T11:37:20.639Z,74.43
2022-09-03T11:40:16.777Z,73.88
2022-09-03T11:43:13.469Z,81.75
2022-09-03T11:46:11.873Z,78.40
2022-09-03T11:49:12.015Z,78.85
2022-09-03T11:52:02.223Z,78.63
2022-09-03T11:54:50.435Z,82.35
2022-09-03T11:57:43.697Z,73.70
2022-09-03T12:00:31.768Z,85.03
2022-09-03T12:03:26.530Z,84.93
2022-09-03T12:06:40.413Z,75.28
2022-09-03T12:09:48.818Z,54.00
2022-09-03T12:12:53.823Z,50.47
2022-09-03T12:16:26.384Z,40.67
2022-09-03T12:19:26.146Z,32.60
2022-09-03T12:22:15.688Z,31.52
2022-09-03T12:25:11.940Z,30.05
2022-09-03T12:28:04.866Z,28.80
2022-09-03T12:30:54.216Z,27.25
2022-09-03T12:33:42.941Z,29.38
2022-09-03T12:36:39.572Z,31.10
2022-09-03T12:42:37.487Z,32.00
2022-09-03T12:46:09.937Z,30.23
2022-09-03T12:48:35.667Z,26.92
2022-09-03T12:54:32.970Z,27.33
2022-09-03T12:57:24.723Z,27.30
2022-09-03T13:00:16.411Z,27.17
2022-09-03T13:03:09.087Z,25.20
2022-09-03T13:06:00.461Z,29.02
2022-09-03T13:08:51.533Z,29.90
2022-09-03T13:11:39.751Z,31.73
2022-09-03T13:14:28.393Z,34.00
2022-09-03T13:17:40.559Z,33.05
2022-09-03T13:20:42.243Z,34.22
2022-09-03T13:23:43.869Z,31.05
2022-09-03T13:26:44.333Z,31.25
2022-09-03T13:29:41.032Z,30.27
2022-09-03T13:32:38.100Z,31.30
2022-09-03T13:35:32.289Z,33.05
2022-09-03T13:38:29.004Z,29.50
2022-09-03T13:41:22.120Z,32.83
2022-09-03T13:44:15.910Z,34.63
2022-09-03T13:47:11.634Z,35.15
2022-09-03T13:50:22.912Z,35.35
2022-09-03T13:53:20.365Z,37.03
2022-09-03T13:56:27.372Z,33.42
2022-09-03T13:59:24.823Z,34.08
2022-09-03T14:02:24.016Z,35.70
2022-09-03T14:05:17.123Z,34.10
2022-09-03T14:08:14.634Z,35.80
2022-09-03T14:11:22.680Z,32.97
2022-09-03T14:14:21.503Z,31.90
2022-09-03T14:17:14.670Z,31.98
2022-09-03T14:20:07.852Z,34.97
2022-09-03T14:23:04.151Z,33.60
2022-09-03T14:25:55.681Z,33.10
2022-09-03T14:28:49.322Z,33.28
2022-09-03T14:32:01.054Z,32.22
2022-09-03T14:35:07.744Z,31.98
2022-09-03T14:38:21.590Z,35.97
2022-09-03T14:41:29.664Z,34.58
2022-09-03T14:44:53.410Z,37.90
2022-09-03T14:47:58.118Z,39.63
2022-09-03T14:50:59.572Z,40.15
2022-09-03T14:54:28.642Z,37.78
2022-09-03T14:57:33.043Z,39.92
2022-09-03T15:00:26.090Z,37.33
2022-09-03T15:03:43.314Z,41.03
2022-09-03T15:06:47.395Z,36.20
2022-09-03T15:09:41.967Z,36.45
2022-09-03T15:12:36.785Z,38.28
2022-09-03T15:15:32.414Z,38.80
2022-09-03T15:18:31.672Z,41.30
2022-09-03T15:21:27.277Z,44.25
2022-09-03T15:24:21.830Z,46.92
2022-09-03T15:27:23.131Z,51.05
2022-09-03T15:30:13.707Z,53.65
2022-09-03T15:33:11.996Z,57.05
2022-09-03T15:36:16.198Z,55.78
2022-09-03T15:39:10.337Z,56.13
2022-09-03T15:42:05.746Z,62.00
2022-09-03T15:44:57.318Z,63.72
2022-09-03T15:47:54.517Z,65.30
2022-09-03T15:50:53.838Z,67.55
2022-09-03T15:53:52.663Z,63.85
2022-09-03T15:56:47.204Z,63.78
2022-09-03T15:59:41.505Z,63.28
2022-09-03T16:02:40.972Z,62.60
2022-09-03T16:05:40.258Z,64.88
2022-09-03T16:08:39.266Z,70.70
2022-09-03T16:11:38.032Z,73.25
2022-09-03T16:14:32.096Z,68.18
2022-09-03T16:17:27.868Z,80.35
2022-09-03T16:20:20.340Z,82.05
2022-09-03T16:23:14.055Z,92.20
2022-09-03T16:26:06.221Z,98.80
2022-09-03T16:29:00.824Z,104.30
2022-09-03T16:32:06.600Z,108.88
2022-09-03T16:35:07.206Z,114.78
2022-09-03T16:38:24.010Z,111.53
2022-09-03T16:41:23.354Z,108.78
2022-09-03T16:44:21.699Z,112.97
2022-09-03T16:47:18.572Z,112.50
2022-09-03T16:50:19.385Z,122.22
2022-09-03T16:53:14.772Z,120.70
2022-09-03T16:56:34.144Z,119.00
2022-09-03T16:59:48.267Z,117.00
2022-09-03T17:02:54.768Z,124.20
2022-09-03T17:06:06.163Z,128.25
2022-09-03T17:09:03.557Z,124.55
2022-09-03T17:12:00.376Z,123.40
2022-09-03T17:15:06.734Z,126.28
2022-09-03T17:18:25.909Z,132.48
2022-09-03T17:21:23.899Z,124.68
2022-09-03T17:24:33.989Z,130.80
2022-09-03T17:27:46.339Z,136.57
2022-09-03T17:30:44.642Z,134.30
2022-09-03T17:33:49.800Z,139.00
2022-09-03T17:36:38.871Z,139.25
2022-09-03T17:39:49.249Z,136.43
2022-09-03T17:42:50.405Z,135.40
2022-09-03T17:45:48.014Z,135.70
2022-09-03T17:48:59.267Z,138.50
2022-09-03T17:51:52.927Z,139.82
2022-09-03T17:54:45.411Z,133.80
2022-09-03T17:57:41.327Z,132.95
2022-09-03T18:00:37.557Z,128.60
2022-09-03T18:03:32.870Z,129.55
2022-09-03T18:06:28.920Z,121.45
2022-09-03T18:09:28.541Z,124.72
2022-09-03T18:12:33.564Z,131.50
2022-09-03T18:15:26.581Z,133.60
2022-09-03T18:18:21.803Z,141.20
2022-09-03T18:21:33.379Z,153.85
2022-09-03T18:24:51.081Z,144.10
2022-09-03T18:28:01.015Z,157.05
2022-09-03T18:31:06.427Z,163.55
2022-09-03T18:34:12.032Z,170.23
2022-09-03T18:37:19.030Z,169.30
2022-09-03T18:40:28.354Z,185.45
2022-09-03T18:43:42.702Z,205.15
2022-09-03T18:50:38.223Z,205.65
2022-09-03T18:53:54.227Z,224.88
2022-09-03T18:57:06.150Z,217.70
2022-09-03T19:00:28.069Z,234.80
2022-09-03T19:03:54.038Z,244.18
2022-09-03T19:07:07.247Z,240.73
2022-09-03T19:10:21.202Z,263.02
2022-09-03T19:13:42.795Z,262.98
2022-09-03T19:17:01.872Z,263.70
2022-09-03T19:20:21.065Z,271.00
2022-09-03T19:23:26.836Z,266.98
2022-09-03T19:26:44.569Z,275.80
2022-09-03T19:30:07.018Z,279.70
2022-09-03T19:33:29.714Z,290.67
2022-09-03T19:36:47.463Z,315.08
2022-09-03T19:40:08.273Z,318.83
2022-09-03T19:43:20.726Z,311.30
2022-09-03T19:46:37.517Z,334.23
2022-09-03T19:49:55.898Z,328.67
2022-09-03T19:53:07.795Z,318.85
2022-09-03T19:56:15.427Z,331.25
2022-09-03T19:59:29.926Z,318.42
2022-09-03T20:02:35.683Z,304.35
2022-09-03T20:05:41.841Z,318.52
2022-09-03T20:08:49.609Z,310.80
2022-09-03T20:11:40.291Z,302.20
2022-09-03T20:14:34.197Z,303.52
2022-09-03T20:17:33.856Z,308.17
2022-09-03T20:20:32.343Z,291.55
2022-09-03T20:23:25.938Z,296.45
2022-09-03T20:26:28.829Z,290.48
2022-09-03T20:29:47.979Z,293.60
2022-09-03T20:33:05.672Z,287.13
2022-09-03T20:36:06.953Z,294.38
2022-09-03T20:39:29.069Z,304.33
2022-09-03T20:42:59.989Z,290.67
2022-09-03T20:46:06.852Z,280.17
2022-09-03T20:49:04.355Z,288.83
2022-09-03T20:51:58.427Z,277.30
2022-09-03T20:54:53.334Z,292.92
2022-09-03T20:57:49.953Z,286.15
2022-09-03T21:00:47.993Z,276.67
2022-09-03T21:03:49.944Z,287.55
2022-09-03T21:06:43.850Z,285.42
2022-09-03T21:09:40.986Z,277.20
2022-09-03T21:12:39.093Z,274.33
2022-09-03T21:15:38.112Z,295.50
2022-09-03T21:18:34.730Z,296.17
2022-09-03T21:21:36.044Z,281.70
2022-09-03T21:24:32.059Z,271.90
2022-09-03T21:27:24.148Z,291.65
2022-09-03T21:30:15.845Z,284.48
2022-09-03T21:33:07.754Z,280.83
2022-09-03T21:36:04.318Z,291.95
2022-09-03T21:39:06.738Z,273.35
2022-09-03T21:42:01.486Z,261.38
2022-09-03T21:44:56.967Z,268.52
2022-09-03T21:47:52.211Z,258.17
2022-09-03T21:50:49.566Z,287.92
2022-09-03T21:53:44.194Z,267.08
2022-09-03T21:56:50.394Z,267.65
2022-09-03T22:00:04.010Z,293.73
2022-09-03T22:03:01.171Z,277.30
2022-09-03T22:05:55.291Z,279.75
2022-09-03T22:08:49.827Z,285.75
2022-09-03T22:11:45.827Z,280.70
2022-09-03T22:14:40.338Z,276.08
2022-09-03T22:17:36.190Z,279.02
2022-09-03T22:20:26.216Z,276.58
2022-09-03T22:23:21.063Z,267.05
2022-09-03T22:26:23.939Z,281.73
2022-09-03T22:29:19.632Z,278.60
2022-09-03T22:32:24.827Z,279.45
2022-09-03T22:35:28.203Z,286.27
2022-09-03T22:38:40.430Z,290.23
2022-09-03T22:41:54.636Z,266.83
2022-09-03T22:45:13.740Z,282.33
2022-09-03T22:48:12.864Z,274.25
2022-09-03T22:51:03.274Z,276.98
2022-09-03T22:54:05.723Z,267.15
2022-09-03T22:56:55.224Z,271.73
2022-09-03T22:59:48.660Z,291.15
2022-09-03T23:02:39.187Z,287.98
2022-09-03T23:05:43.756Z,282.52
2022-09-03T23:08:36.420Z,279.17
2022-09-03T23:11:27.629Z,276.85
2022-09-03T23:14:22.280Z,284.35
2022-09-03T23:17:14.058Z,281.40
2022-09-03T23:23:00.392Z,286.42
2022-09-03T23:25:53.804Z,275.85
2022-09-03T23:28:45.911Z,280.88
2022-09-03T23:31:35.500Z,288.23
2022-09-03T23:34:23.718Z,278.58
2022-09-03T23:37:33.491Z,289.55
2022-09-03T23:40:41.284Z,269.48
2022-09-03T23:44:02.798Z,273.88
2022-09-03T23:47:01.460Z,273.08
2022-09-03T23:49:59.034Z,287.80
2022-09-03T23:53:03.799Z,283.38
2022-09-03T23:56:08.016Z,279.67
2022-09-03T23:59:09.455Z,274.95
